Latest Weather Observations for Mount Ginini

IDN60801

Issued at 9:02 pm EDT Sunday 4 December 2016 (issued every 30 minutes, with the page automatically refreshed every 10 minutes)

About weather observations | Map of weather stations | Latest weather observations for NSW | Other Formats
Station Details ID: 070349 Name: MOUNT GININI AWS Lat: -35.53 Lon: 148.77 Height: 1760.0 m
Data from the previous 72 hours. | See also: Recent months at Mount Ginini
Date/Time
EDT
Temp
°C
App
Temp
°C
Dew
Point
°C
Rel
Hum
%
Delta-T
°C
Wind Press
QNH
hPa
Press
MSL
hPa
Rain since
9am
mm
Dir  Spd
km/h
Gust
km/h
Spd
kts
Gust
kts
04/09:00pm 14.4 12.0 8.8 69 3.1 NW 11 20 6 11 - - 0.0
04/08:30pm 15.1 12.0 8.8 66 3.5 WNW 15 32 8 17 - - 0.0
04/08:00pm 15.7 11.6 8.0 60 4.2 NW 19 32 10 17 - - 0.0
04/07:30pm 16.3 12.1 7.5 56 4.8 NW 19 33 10 18 - - 0.0
04/07:00pm 16.5 13.9 7.7 56 4.8 NW 11 22 6 12 - - 0.0
04/06:30pm 17.0 14.2 8.4 57 4.8 WNW 13 26 7 14 - - 0.0
04/06:00pm 16.7 14.0 8.9 60 4.4 WNW 13 24 7 13 - - 0.0
04/05:30pm 17.5 14.5 7.8 53 5.4 WNW 13 26 7 14 - - 0.0
04/05:00pm 17.9 13.7 7.3 50 5.8 NW 19 39 10 21 - - 0.0
04/04:30pm 19.4 15.9 7.2 45 6.8 NW 15 32 8 17 - - 0.0
04/04:00pm 21.1 18.3 8.4 44 7.3 W 13 26 7 14 - - 0.0
04/03:30pm 19.2 16.6 7.9 48 6.3 W 11 22 6 12 - - 0.0
04/03:00pm 19.4 16.9 8.1 48 6.4 W 11 28 6 15 - - 0.0
04/02:30pm 19.7 16.2 7.1 44 7.0 WNW 15 26 8 14 - - 0.0
04/02:00pm 21.3 18.1 6.8 39 8.1 WNW 13 30 7 16 - - 0.0
04/01:30pm 21.9 19.8 8.1 41 7.9 WNW 9 20 5 11 - - 0.0
04/01:00pm 20.9 18.7 7.9 43 7.4 WNW 9 24 5 13 - - 0.0
04/12:30pm 19.2 16.0 7.0 45 6.7 WNW 13 30 7 16 - - 0.0
04/12:00pm 20.3 17.1 7.0 42 7.4 WNW 13 26 7 14 - - 0.0
04/11:30am 20.2 16.9 6.5 41 7.5 W 13 20 7 11 - - 0.0
04/11:00am 19.4 16.1 6.5 43 7.1 WSW 13 26 7 14 - - 0.0
04/10:30am 19.2 16.4 7.0 45 6.7 W 11 26 6 14 - - 0.0
04/10:00am 17.8 14.6 5.1 43 6.7 WNW 11 20 6 11 - - 0.0
04/09:30am 17.3 14.0 4.6 43 6.6 WNW 11 19 6 10 - - 0.0
04/09:00am 16.6 13.3 4.6 45 6.2 WNW 11 20 6 11 - - 0.0
04/08:30am 16.1 12.5 3.2 42 6.5 WNW 11 20 6 11 - - 0.0
04/08:00am 15.5 11.9 2.7 42 6.4 W 11 24 6 13 - - 0.0
04/07:30am 14.5 10.5 2.7 45 5.8 W 13 24 7 13 - - 0.0
04/07:00am 13.2 8.6 1.8 46 5.5 W 15 26 8 14 - - 0.0
04/06:30am 12.5 8.3 1.8 48 5.1 W 13 20 7 11 - - 0.0
04/06:00am 12.1 7.5 1.7 49 4.9 W 15 24 8 13 - - 0.0
04/05:30am 12.2 8.0 1.5 48 5.1 W 13 22 7 12 - - 0.0
04/05:00am 12.4 8.5 1.4 47 5.2 W 11 26 6 14 - - 0.0
04/04:30am 12.4 8.1 1.1 46 5.3 W 13 28 7 15 - - 0.0
04/04:00am 12.1 7.7 0.5 45 5.4 WSW 13 24 7 13 - - 0.0
04/03:30am 12.1 7.7 0.2 44 5.5 WSW 13 22 7 12 - - 0.0
04/03:00am 12.1 8.0 -0.1 43 5.6 WSW 11 24 6 13 - - 0.0
04/02:30am 12.2 8.1 0.0 43 5.6 WSW 11 19 6 10 - - 0.0
04/02:00am 12.7 8.3 0.1 42 5.8 WSW 13 32 7 17 - - 0.0
04/01:30am 12.6 7.7 -0.3 41 5.9 WSW 15 24 8 13 - - 0.0
04/01:00am 12.7 8.0 -1.6 37 6.3 WSW 13 26 7 14 - - 0.0
04/12:30am 13.0 7.9 -2.1 35 6.6 WSW 15 33 8 18 - - 0.0
04/12:00am 13.1 7.6 -2.4 34 6.8 WSW 17 30 9 16 - - 0.0
 
Date/Time
EDT
Temp
°C
App
Temp
°C
Dew
Point
°C
Rel
Hum
%
Delta-T
°C
Wind Press
QNH
hPa
Press
MSL
hPa
Rain since
9am
mm
Dir  Spd
km/h
Gust
km/h
Spd
kts
Gust
kts
03/11:30pm 12.8 7.6 -2.6 34 6.7 WSW 15 28 8 15 - - 0.0
03/11:00pm 12.7 7.6 -2.3 35 6.6 WSW 15 28 8 15 - - 0.0
03/10:30pm 12.4 7.6 -2.6 35 6.5 WSW 13 22 7 12 - - 0.0
03/10:00pm 12.2 7.9 -2.0 37 6.2 WSW 11 19 6 10 - - 0.0
03/09:30pm 12.6 8.7 -1.3 38 6.2 WSW 9 15 5 8 - - 0.0
03/09:00pm 13.4 9.1 -1.3 36 6.6 WSW 11 19 6 10 - - 0.0
03/08:30pm 13.7 9.7 -1.9 34 6.9 W 9 22 5 12 - - 0.0
03/08:00pm 14.7 10.4 -1.4 33 7.3 W 11 22 6 12 - - 0.0
03/07:30pm 15.8 11.8 0.4 35 7.3 W 11 20 6 11 - - 0.0
03/07:00pm 17.8 13.9 1.3 33 8.1 W 11 26 6 14 - - 0.0
03/06:30pm 18.4 13.9 1.9 33 8.2 WNW 15 32 8 17 - - 0.0
03/06:00pm 18.9 14.3 1.4 31 8.7 W 15 35 8 19 - - 0.0
03/05:30pm 19.4 14.6 2.7 33 8.5 WNW 17 33 9 18 - - 0.0
03/05:00pm 19.3 15.4 3.5 35 8.2 WNW 13 30 7 16 - - 0.0
03/04:30pm 19.1 15.5 4.8 39 7.6 WNW 13 24 7 13 - - 0.0
03/04:00pm 19.5 14.5 3.6 35 8.3 W 19 35 10 19 - - 0.0
03/03:30pm 19.6 15.2 6.4 42 7.2 WNW 19 37 10 20 - - 0.0
03/03:00pm 18.4 14.9 5.6 43 6.9 WSW 13 33 7 18 - - 0.0
03/02:30pm 18.6 14.9 6.1 44 6.8 W 15 35 8 19 - - 0.0
03/02:00pm 19.6 15.4 5.6 40 7.5 W 17 39 9 21 - - 0.0
03/01:30pm 19.2 14.3 5.3 40 7.4 WNW 20 37 11 20 - - 0.0
03/01:00pm 18.1 14.0 6.0 45 6.5 WNW 17 43 9 23 - - 0.0
03/12:30pm 18.9 15.0 8.6 51 5.8 W 19 39 10 21 - - 0.0
03/12:00pm 18.3 14.8 8.8 54 5.4 WNW 17 30 9 16 - - 0.0
03/11:30am 16.7 12.7 8.1 57 4.8 WNW 19 33 10 18 - - 0.0
03/11:00am 16.9 14.2 9.1 60 4.4 WNW 13 28 7 15 - - 0.0
03/10:30am 15.6 12.4 8.4 62 4.0 WNW 15 26 8 14 - - 0.0
03/10:00am 15.3 11.9 7.8 61 4.1 NW 15 26 8 14 - - 0.0
03/09:30am 14.7 10.8 5.2 53 4.9 WNW 15 30 8 16 - - 0.0
03/09:00am 14.8 11.2 5.1 52 5.0 WNW 13 22 7 12 - - 0.0
03/08:30am 13.9 10.2 4.5 53 4.8 NW 13 26 7 14 - - 0.0
03/08:00am 13.3 9.6 4.5 55 4.5 NW 13 26 7 14 - - 0.0
03/07:30am 12.6 8.4 3.8 55 4.4 NW 15 26 8 14 - - 0.0
03/07:00am 11.6 7.3 3.4 57 4.0 NW 15 24 8 13 - - 0.0
03/06:30am 10.6 6.6 2.9 59 3.7 NW 13 20 7 11 - - 0.0
03/06:00am 10.5 6.5 2.6 58 3.8 NW 13 20 7 11 - - 0.0
03/05:30am 10.1 6.0 2.2 58 3.7 WNW 13 19 7 10 - - 0.0
03/05:00am 10.4 6.3 2.3 57 3.8 WNW 13 22 7 12 - - 0.0
03/04:30am 10.5 6.4 2.1 56 4.0 W 13 20 7 11 - - 0.0
03/04:00am 10.5 6.8 2.1 56 4.0 W 11 20 6 11 - - 0.0
03/03:30am 10.4 6.7 2.3 57 3.8 W 11 19 6 10 - - 0.0
03/03:00am 10.7 6.6 2.0 55 4.1 WNW 13 20 7 11 - - 0.0
03/02:30am 10.9 6.8 2.0 54 4.2 WNW 13 20 7 11 - - 0.0
03/02:00am 10.9 6.8 2.5 56 4.0 WNW 13 24 7 13 - - 0.0
03/01:30am 11.1 7.5 2.7 56 4.0 WNW 11 20 6 11 - - 0.0
03/01:00am 11.3 7.3 2.9 56 4.1 WNW 13 20 7 11 - - 0.0
03/12:30am 11.1 7.5 3.2 58 3.8 WNW 11 19 6 10 - - 0.0
03/12:00am 11.2 7.7 3.3 58 3.8 WNW 11 17 6 9 - - 0.0
 
Date/Time
EDT
Temp
°C
App
Temp
°C
Dew
Point
°C
Rel
Hum
%
Delta-T
°C
Wind Press
QNH
hPa
Press
MSL
hPa
Rain since
9am
mm
Dir  Spd
km/h
Gust
km/h
Spd
kts
Gust
kts
02/11:30pm 11.3 7.9 3.8 60 3.7 WNW 11 20 6 11 - - 0.0
02/11:00pm 11.6 7.8 3.9 59 3.8 WNW 13 22 7 12 - - 0.0
02/10:30pm 11.7 8.0 4.2 60 3.7 WNW 13 24 7 13 - - 0.0
02/10:00pm 12.0 8.2 4.0 58 4.0 WNW 13 22 7 12 - - 0.0
02/09:30pm 12.5 8.7 4.0 56 4.2 WNW 13 22 7 12 - - 0.0
02/09:00pm 12.8 9.2 3.2 52 4.7 W 11 20 6 11 - - 0.0
02/08:30pm 13.6 9.7 3.4 50 5.1 W 13 26 7 14 - - 0.0
02/08:00pm 14.1 10.2 3.3 48 5.4 W 13 26 7 14 - - 0.0
02/07:30pm 15.1 11.2 3.3 45 5.9 W 13 26 7 14 - - 0.0
02/07:00pm 16.3 11.3 3.7 43 6.4 W 19 33 10 18 - - 0.0
02/06:30pm 15.9 10.6 3.0 42 6.5 WSW 20 44 11 24 - - 0.0
02/06:00pm 17.2 12.9 3.5 40 7.0 W 15 32 8 17 - - 0.0
02/05:30pm 18.2 13.9 3.3 37 7.6 W 15 33 8 18 - - 0.0
02/05:00pm 17.6 12.2 2.4 36 7.6 WSW 20 50 11 27 - - 0.0
02/04:30pm 18.5 12.0 2.8 35 8.0 WSW 26 48 14 26 - - 0.0
02/04:00pm 19.2 14.0 3.8 36 8.0 W 20 54 11 29 - - 0.0
02/03:30pm 19.6 15.2 4.9 38 7.8 WNW 17 35 9 19 - - 0.0
02/03:00pm 18.1 11.2 2.8 36 7.7 WSW 28 52 15 28 - - 0.0
02/02:49pm 18.3 11.3 2.2 34 8.1 W 28 57 15 31 - - 0.0
02/02:30pm 18.5 13.1 4.3 39 7.4 W 22 48 12 26 - - 0.0
02/02:00pm 18.6 12.6 3.6 37 7.7 W 24 44 13 24 - - 0.0
02/01:30pm 18.8 13.6 3.8 37 7.8 W 20 41 11 22 - - 0.0
02/01:00pm 18.3 13.2 3.0 36 7.8 W 19 44 10 24 - - 0.0
02/12:30pm 18.1 13.3 2.8 36 7.7 W 17 33 9 18 - - 0.0
02/12:00pm 17.4 11.8 1.0 33 8.0 W 20 59 11 32 - - 0.0
02/11:30am 17.2 12.0 2.4 37 7.4 W 19 41 10 22 - - 0.0
02/11:00am 17.2 12.8 4.5 43 6.6 W 17 35 9 19 - - 0.0
02/10:30am 15.7 10.9 4.4 47 5.8 W 19 43 10 23 - - 0.0
02/10:00am 14.9 10.7 4.0 48 5.5 W 15 32 8 17 - - 0.0
02/09:30am 14.4 10.2 3.8 49 5.3 W 15 32 8 17 - - 0.0
02/09:00am 13.5 9.5 2.7 48 5.3 W 13 26 7 14 - - 0.0
02/08:30am 12.4 7.8 1.7 48 5.1 W 15 30 8 16 - - 0.0
02/08:00am 11.6 7.4 1.5 50 4.7 W 13 26 7 14 - - 0.0
02/07:30am 11.1 6.8 1.1 50 4.6 WSW 13 28 7 15 - - 0.0
02/07:00am 10.7 6.4 0.7 50 4.6 WSW 13 22 7 12 - - 0.0
02/06:30am 10.6 5.8 0.1 48 4.7 WSW 15 28 8 15 - - 0.0
02/06:00am 10.6 5.8 0.1 48 4.7 WSW 15 30 8 16 - - 0.0
02/05:30am 10.7 5.5 -0.1 47 4.9 WSW 17 30 9 16 - - 0.0
02/05:00am 10.6 5.4 0.3 49 4.7 WSW 17 30 9 16 - - 0.0
02/04:30am 10.4 5.6 0.4 50 4.5 W 15 28 8 15 - - 0.0
02/04:00am 10.4 5.6 0.2 49 4.6 W 15 24 8 13 - - 0.0
02/03:30am 10.5 6.0 0.0 48 4.7 W 13 24 7 13 - - 0.0
02/03:00am 10.6 5.8 0.3 49 4.7 W 15 30 8 16 - - 0.0
02/02:30am 10.7 5.5 0.4 49 4.7 W 17 30 9 16 - - 0.0
02/02:00am 10.7 5.9 0.4 49 4.7 W 15 30 8 16 - - 0.0
02/01:30am 10.6 5.9 0.6 50 4.6 W 15 26 8 14 - - 0.0
02/01:00am 10.6 5.9 0.9 51 4.5 W 15 32 8 17 - - 0.0
02/12:30am 10.8 5.7 0.5 49 4.7 W 17 33 9 18 - - 0.0
02/12:00am 10.5 5.7 0.3 49 4.6 W 15 26 8 14 - - 0.0
 
Date/Time
EDT
Temp
°C
App
Temp
°C
Dew
Point
°C
Rel
Hum
%
Delta-T
°C
Wind Press
QNH
hPa
Press
MSL
hPa
Rain since
9am
mm
Dir  Spd
km/h
Gust
km/h
Spd
kts
Gust
kts
01/11:30pm 10.8 6.4 0.5 49 4.7 W 13 22 7 12 - - 0.0
01/11:00pm 10.5 6.1 0.3 49 4.6 W 13 22 7 12 - - 0.0
01/10:30pm 10.8 6.7 0.0 47 4.9 W 11 20 6 11 - - 0.0
01/10:00pm 10.9 7.2 0.0 47 4.9 W 9 20 5 11 - - 0.0
01/09:30pm 11.3 7.2 -0.2 45 5.2 WNW 11 20 6 11 - - 0.0

Other Formats:

Comma delimited format used in spreadsheet applications
http://www.bom.gov.au/fwo/IDN60801/IDN60801.95925.axf

JavaScript Object Notation format (JSON) in row-major order
http://www.bom.gov.au/fwo/IDN60801/IDN60801.95925.json